Morton Mills, Iowa
Current Conditions -  °F | °C
As of 12:55 AM on Saturday 25 Oct 2014 (Local Time) from KRDK Reporting Station
Haze Haze  
Wind Chill: 50°   Ceiling: Unl
Heat Index: 50°   Visibility: 4mi
Dew Point: 50°   Wind: 3mph
Humidity: 100%   Direction: 50°NE
Pressure: 30"   Gusts: NA
Location:  40.9867°N, 94.9847°W
Report Text: KRDK 250555Z AUTO 05003KT 4SM BR CLR 10/10 A3000 RMK AO2
Loading
Personal Weather Stations






























Interactive Weather Map
Tropical Storm Tracking
New forecast layout! Learn more

10-Day Weather Forecast

Advertisements
Track Severe Weather on mobile